createdAt,value
2022-10-11T00:01:13.971Z,99940.84
2022-10-11T00:03:18.770Z,99928.66
2022-10-11T00:05:20.982Z,99916.31
2022-10-11T00:07:23.090Z,99934.84
2022-10-11T00:09:25.453Z,99929.47
2022-10-11T00:11:39.863Z,99928.53
2022-10-11T00:13:53.415Z,99892.66
2022-10-11T00:16:12.375Z,99933.75
2022-10-11T00:18:14.567Z,99926.72
2022-10-11T00:20:28.586Z,99929.44
2022-10-11T00:22:42.051Z,99929.53
2022-10-11T00:24:55.318Z,99918.06
2022-10-11T00:27:09.365Z,99904.13
2022-10-11T00:29:23.483Z,99919.03
2022-10-11T00:31:37.729Z,99928.81
2022-10-11T00:33:53.967Z,99909.84
2022-10-11T00:36:08.968Z,99916.34
2022-10-11T00:38:23.568Z,99906.38
2022-10-11T00:40:38.693Z,99918.25
2022-10-11T00:42:51.941Z,99899.22
2022-10-11T00:45:27.977Z,99916.16
2022-10-11T00:47:41.507Z,99907.53
2022-10-11T00:49:57.855Z,99919.34
2022-10-11T00:52:29.261Z,99911.63
2022-10-11T00:54:46.041Z,99917.72
2022-10-11T00:57:07.223Z,99920.56
2022-10-11T00:59:29.713Z,99902.28
2022-10-11T01:01:41.982Z,99921.78
2022-10-11T01:03:44.393Z,99916.56
2022-10-11T01:05:46.545Z,99904.09
2022-10-11T01:07:48.861Z,99910.88
2022-10-11T01:09:51.620Z,99913.31
2022-10-11T01:12:12.761Z,99900.97
2022-10-11T01:14:54.420Z,99909.47
2022-10-11T01:17:43.909Z,99905.63
2022-10-11T01:20:03.267Z,99911.56
2022-10-11T01:22:55.203Z,99908.78
2022-10-11T01:25:26.848Z,99901.66
2022-10-11T01:27:58.860Z,99907.53
2022-10-11T01:30:19.667Z,99907.31
2022-10-11T01:32:58.170Z,99899.06
2022-10-11T01:35:27.190Z,99895.13
2022-10-11T01:37:48.424Z,99894.75
2022-10-11T01:40:09.661Z,99909.47
2022-10-11T01:42:25.440Z,99896.16
2022-10-11T01:44:41.822Z,99897.75
2022-10-11T01:46:55.497Z,99904.59
2022-10-11T01:49:10.101Z,99896.63
2022-10-11T01:51:28.889Z,99905.28
2022-10-11T01:53:55.183Z,99909.56
2022-10-11T01:56:27.090Z,99912.03
2022-10-11T01:59:14.211Z,99912.78
2022-10-11T02:01:37.131Z,99912.72
2022-10-11T02:03:57.779Z,99912.53
2022-10-11T02:06:28.152Z,99903.66
2022-10-11T02:08:50.415Z,99907.88
2022-10-11T02:11:04.650Z,99910.28
2022-10-11T02:13:41.337Z,99914.47
2022-10-11T02:15:58.615Z,99914.22
2022-10-11T02:18:21.077Z,99904.50
2022-10-11T02:20:37.478Z,99885.06
2022-10-11T02:22:57.956Z,99890.31
2022-10-11T02:25:15.517Z,99912.91
2022-10-11T02:27:33.740Z,99904.88
2022-10-11T02:29:50.102Z,99913.53
2022-10-11T02:32:04.508Z,99900.38
2022-10-11T02:34:23.063Z,99912.47
2022-10-11T02:36:46.514Z,99881.84
2022-10-11T02:39:08.111Z,99890.56
2022-10-11T02:41:46.657Z,99914.97
2022-10-11T02:44:17.595Z,99909.63
2022-10-11T02:46:31.953Z,99918.28
2022-10-11T02:48:45.440Z,99902.50
2022-10-11T02:50:59.888Z,99921.66
2022-10-11T02:53:27.054Z,99913.91
2022-10-11T02:55:38.673Z,99896.41
2022-10-11T02:57:52.415Z,99905.09
2022-10-11T03:00:07.126Z,99920.75
2022-10-11T03:02:19.427Z,99915.47
2022-10-11T03:04:33.628Z,99909.44
2022-10-11T03:06:46.314Z,99912.25
2022-10-11T03:08:58.821Z,99914.91
2022-10-11T03:11:12.892Z,99904.53
2022-10-11T03:13:27.026Z,99918.53
2022-10-11T03:15:40.313Z,99908.88
2022-10-11T03:17:54.117Z,99905.19
2022-10-11T03:20:08.591Z,99912.09
2022-10-11T03:22:21.433Z,99907.53
2022-10-11T03:24:35.022Z,99909.31
2022-10-11T03:27:01.660Z,99897.06
2022-10-11T03:29:15.082Z,99889.16
2022-10-11T03:31:28.861Z,99898.66
2022-10-11T03:33:41.991Z,99889.06
2022-10-11T03:35:56.115Z,99890.72
2022-10-11T03:38:17.312Z,99903.94
2022-10-11T03:40:31.010Z,99893.44
2022-10-11T03:42:43.657Z,99879.56
2022-10-11T03:44:59.712Z,99888.38
2022-10-11T03:47:13.541Z,99895.44
2022-10-11T03:49:27.704Z,99888.56
2022-10-11T03:51:41.936Z,99889.44
2022-10-11T03:53:54.721Z,99876.28
2022-10-11T03:56:09.951Z,99880.63
2022-10-11T03:58:24.195Z,99886.75
2022-10-11T04:00:36.472Z,99865.78
2022-10-11T04:02:48.405Z,99883.28
2022-10-11T04:05:02.832Z,99873.72
2022-10-11T04:07:16.687Z,99888.66
2022-10-11T04:09:29.507Z,99886.22
2022-10-11T04:11:41.982Z,99886.28
2022-10-11T04:13:57.175Z,99881.97
2022-10-11T04:16:10.259Z,99876.91
2022-10-11T04:18:22.973Z,99891.94
2022-10-11T04:20:37.229Z,99894.75
2022-10-11T04:22:51.291Z,99895.00
2022-10-11T04:25:07.208Z,99891.69
2022-10-11T04:27:23.908Z,99884.25
2022-10-11T04:29:38.800Z,99894.09
2022-10-11T04:31:53.275Z,99888.34
2022-10-11T04:34:07.214Z,99864.47
2022-10-11T04:36:21.338Z,99866.19
2022-10-11T04:38:33.991Z,99869.13
2022-10-11T04:40:48.016Z,99899.47
2022-10-11T04:43:02.551Z,99839.34
2022-10-11T04:45:17.190Z,99883.72
2022-10-11T04:47:45.939Z,99893.44
2022-10-11T04:50:07.263Z,99878.31
2022-10-11T04:52:26.041Z,99885.13
2022-10-11T04:54:40.793Z,99870.88
2022-10-11T04:56:55.784Z,99866.63
2022-10-11T04:59:10.195Z,99872.94
2022-10-11T05:01:24.695Z,99869.06
2022-10-11T05:03:38.403Z,99874.97
2022-10-11T05:05:50.562Z,99861.31
2022-10-11T05:08:04.312Z,99858.94
2022-10-11T05:10:18.569Z,99869.09
2022-10-11T05:12:33.572Z,99870.28
2022-10-11T05:14:47.158Z,99858.75
2022-10-11T05:17:01.104Z,99859.09
2022-10-11T05:19:15.171Z,99868.56
2022-10-11T05:21:30.408Z,99863.63
2022-10-11T05:23:44.092Z,99868.88
2022-10-11T05:25:58.583Z,99861.25
2022-10-11T05:28:10.664Z,99864.22
2022-10-11T05:30:24.828Z,99872.59
2022-10-11T05:32:38.870Z,99868.75
2022-10-11T05:34:53.005Z,99859.28
2022-10-11T05:37:08.535Z,99865.31
2022-10-11T05:39:21.443Z,99858.19
2022-10-11T05:41:35.929Z,99855.91
2022-10-11T05:43:49.893Z,99861.56
2022-10-11T05:46:05.317Z,99851.78
2022-10-11T05:48:19.917Z,99853.84
2022-10-11T05:50:32.768Z,99851.13
2022-10-11T05:52:46.637Z,99859.94
2022-10-11T05:54:59.334Z,99855.63
2022-10-11T05:57:13.715Z,99860.25
2022-10-11T05:59:28.251Z,99855.34
2022-10-11T06:01:40.609Z,99856.94
2022-10-11T06:03:53.625Z,99848.78
2022-10-11T06:06:06.048Z,99850.13
2022-10-11T06:08:19.733Z,99848.53
2022-10-11T06:10:34.003Z,99845.41
2022-10-11T06:12:48.757Z,99849.72
2022-10-11T06:15:18.874Z,99856.72
2022-10-11T06:18:36.203Z,99852.97
2022-10-11T06:21:09.181Z,99844.50
2022-10-11T06:23:36.852Z,99827.19
2022-10-11T06:26:09.358Z,99849.00
2022-10-11T06:28:37.289Z,99849.03
2022-10-11T06:30:48.978Z,99841.16
2022-10-11T06:33:20.864Z,99858.50
2022-10-11T06:35:48.510Z,99848.91
2022-10-11T06:38:30.781Z,99839.28
2022-10-11T06:40:58.522Z,99854.09
2022-10-11T06:43:25.527Z,99830.56
2022-10-11T06:45:52.702Z,99830.53
2022-10-11T06:48:23.206Z,99850.59
2022-10-11T06:51:00.481Z,99839.28
2022-10-11T06:53:28.444Z,99850.56
2022-10-11T06:56:09.880Z,99811.22
2022-10-11T06:58:37.512Z,99844.41
2022-10-11T07:01:20.716Z,99837.44
2022-10-11T07:03:55.604Z,99848.84
2022-10-11T07:06:26.246Z,99834.09
2022-10-11T07:08:56.320Z,99849.81
2022-10-11T07:11:26.475Z,99851.56
2022-10-11T07:14:00.304Z,99849.78
2022-10-11T07:16:30.799Z,99839.34
2022-10-11T07:19:03.385Z,99840.19
2022-10-11T07:21:32.084Z,99851.59
2022-10-11T07:24:05.605Z,99862.00
2022-10-11T07:26:38.800Z,99837.56
2022-10-11T07:29:15.035Z,99849.78
2022-10-11T07:31:43.619Z,99837.63
2022-10-11T07:33:56.454Z,99846.34
2022-10-11T07:36:30.572Z,99840.28
2022-10-11T07:39:08.985Z,99838.53
2022-10-11T07:41:38.155Z,99826.34
2022-10-11T07:44:22.390Z,99832.44
2022-10-11T07:46:35.357Z,99827.22
2022-10-11T07:49:02.806Z,99842.91
2022-10-11T07:51:38.680Z,99834.19
2022-10-11T07:53:56.797Z,99834.19
2022-10-11T07:56:37.087Z,99826.34
2022-10-11T07:58:53.594Z,99828.97
2022-10-11T08:01:21.348Z,99812.38
2022-10-11T08:03:51.895Z,99818.50
2022-10-11T08:06:23.933Z,99817.63
2022-10-11T08:08:37.031Z,99821.97
2022-10-11T08:11:07.345Z,99811.53
2022-10-11T08:13:38.139Z,99827.22
2022-10-11T08:16:14.309Z,99822.84
2022-10-11T08:18:51.179Z,99806.28
2022-10-11T08:21:21.608Z,99810.63
2022-10-11T08:23:50.917Z,99829.75
2022-10-11T08:26:22.055Z,99819.28
2022-10-11T08:28:50.251Z,99807.91
2022-10-11T08:31:02.437Z,99807.00
2022-10-11T08:33:33.604Z,99800.91
2022-10-11T08:35:46.798Z,99799.97
2022-10-11T08:38:14.230Z,99805.19
2022-10-11T08:40:34.251Z,99795.63
2022-10-11T08:43:07.014Z,99786.84
2022-10-11T08:45:52.304Z,99797.34
2022-10-11T08:48:41.788Z,99792.13
2022-10-11T08:51:18.534Z,99788.59
2022-10-11T08:54:07.779Z,99793.78
2022-10-11T08:56:40.117Z,99788.50
2022-10-11T08:59:13.134Z,99782.34
2022-10-11T09:01:36.236Z,99770.13
2022-10-11T09:03:51.864Z,99778.88
2022-10-11T09:06:17.078Z,99774.53
2022-10-11T09:08:29.202Z,99770.25
2022-10-11T09:10:58.630Z,99769.31
2022-10-11T09:13:17.741Z,99767.59
2022-10-11T09:15:49.297Z,99763.22
2022-10-11T09:18:16.303Z,99759.72
2022-10-11T09:20:40.385Z,99753.59
2022-10-11T09:23:13.938Z,99755.31
2022-10-11T09:25:22.245Z,99758.84
2022-10-11T09:27:50.398Z,99753.63
2022-10-11T09:30:14.818Z,99743.97
2022-10-11T09:32:22.750Z,99745.66
2022-10-11T09:34:32.395Z,99748.25
2022-10-11T09:36:42.987Z,99746.47
2022-10-11T09:38:56.964Z,99734.25
2022-10-11T09:41:23.825Z,99741.22
2022-10-11T09:43:26.060Z,99726.34
2022-10-11T09:45:28.159Z,99722.78
2022-10-11T09:47:33.104Z,99719.19
2022-10-11T09:49:42.778Z,99723.47
2022-10-11T09:51:57.037Z,99712.03
2022-10-11T09:54:05.614Z,99724.31
2022-10-11T09:56:08.518Z,99710.28
2022-10-11T09:58:26.139Z,99719.78
2022-10-11T10:00:33.749Z,99720.63
2022-10-11T10:02:46.980Z,99714.44
2022-10-11T10:05:08.397Z,99708.22
2022-10-11T10:07:13.209Z,99709.03
2022-10-11T10:09:26.661Z,99699.44
2022-10-11T10:11:37.060Z,99710.69
2022-10-11T10:13:52.495Z,99706.28
2022-10-11T10:15:59.357Z,99713.25
2022-10-11T10:18:03.092Z,99705.44
2022-10-11T10:20:06.594Z,99703.69
2022-10-11T10:22:19.375Z,99687.97
2022-10-11T10:24:29.497Z,99690.59
2022-10-11T10:26:32.978Z,99696.66
2022-10-11T10:28:35.950Z,99692.34
2022-10-11T10:30:51.203Z,99696.66
2022-10-11T10:32:57.113Z,99688.81
2022-10-11T10:35:14.171Z,99680.97
2022-10-11T10:37:23.996Z,99674.94
2022-10-11T10:39:35.380Z,99670.56
2022-10-11T10:41:37.629Z,99681.00
2022-10-11T10:43:43.165Z,99666.22
2022-10-11T10:46:08.303Z,99677.41
2022-10-11T10:49:01.735Z,99670.56
2022-10-11T10:51:01.089Z,99665.31
2022-10-11T10:53:20.925Z,99674.91
2022-10-11T10:55:40.317Z,99674.03
2022-10-11T10:57:51.322Z,99670.50
2022-10-11T11:00:22.399Z,99668.72
2022-10-11T11:02:44.412Z,99652.19
2022-10-11T11:07:28.699Z,99666.84
2022-10-11T11:09:58.662Z,99663.22
2022-10-11T11:12:25.457Z,99659.72
2022-10-11T11:14:27.508Z,99657.91
2022-10-11T11:16:42.239Z,99646.53
2022-10-11T11:18:56.047Z,99650.91
2022-10-11T11:21:16.090Z,99643.91
2022-10-11T11:23:20.827Z,99638.63
2022-10-11T11:25:35.484Z,99631.56
2022-10-11T11:28:18.674Z,99643.84
2022-10-11T11:30:23.263Z,99636.19
2022-10-11T11:32:49.458Z,99631.81
2022-10-11T11:35:01.325Z,99628.28
2022-10-11T11:37:09.916Z,99618.59
2022-10-11T11:39:20.907Z,99621.22
2022-10-11T11:41:30.959Z,99613.34
2022-10-11T11:43:46.619Z,99606.38
2022-10-11T11:45:58.038Z,99602.00
2022-10-11T11:48:06.800Z,99608.06
2022-10-11T11:50:23.845Z,99602.81
2022-10-11T11:52:34.926Z,99606.28
2022-10-11T11:55:03.058Z,99602.81
2022-10-11T11:57:18.912Z,99602.00
2022-10-11T11:59:27.855Z,99594.13
2022-10-11T12:01:48.151Z,99598.50
2022-10-11T12:04:04.242Z,99596.03
2022-10-11T12:06:12.375Z,99601.28
2022-10-11T12:08:31.927Z,99587.41
2022-10-11T12:10:53.669Z,99594.41
2022-10-11T12:13:40.551Z,99592.66
2022-10-11T12:16:15.840Z,99598.00
2022-10-11T12:18:18.338Z,99593.66
2022-10-11T12:20:41.391Z,99589.44
2022-10-11T12:23:00.479Z,99574.59
2022-10-11T12:25:18.387Z,99582.41
2022-10-11T12:27:42.302Z,99585.94
2022-10-11T12:29:49.559Z,99571.19
2022-10-11T12:32:29.192Z,99566.88
2022-10-11T12:34:38.578Z,99572.97
2022-10-11T12:36:40.659Z,99572.88
2022-10-11T12:38:42.781Z,99581.66
2022-10-11T12:40:47.394Z,99578.13
2022-10-11T12:43:14.377Z,99566.75
2022-10-11T12:45:18.959Z,99565.03
2022-10-11T12:47:52.906Z,99570.28
2022-10-11T12:50:39.211Z,99572.97
2022-10-11T12:53:03.636Z,99555.56
2022-10-11T12:55:25.396Z,99559.00
2022-10-11T12:57:51.963Z,99564.25
2022-10-11T12:59:54.112Z,99552.97
2022-10-11T13:01:58.170Z,99561.72
2022-10-11T13:04:12.858Z,99553.03
2022-10-11T13:06:45.397Z,99553.88
2022-10-11T13:09:11.643Z,99546.94
2022-10-11T13:11:23.644Z,99552.13
2022-10-11T13:13:38.904Z,99546.06
2022-10-11T13:15:43.768Z,99544.31
2022-10-11T13:17:46.087Z,99542.63
2022-10-11T13:19:51.395Z,99548.69
2022-10-11T13:21:59.511Z,99541.78
2022-10-11T13:24:05.115Z,99547.00
2022-10-11T13:26:08.654Z,99531.38
2022-10-11T13:28:11.540Z,99538.31
2022-10-11T13:30:19.699Z,99543.53
2022-10-11T13:32:26.442Z,99544.41
2022-10-11T13:34:33.015Z,99534.91
2022-10-11T13:36:37.501Z,99545.38
2022-10-11T13:38:40.788Z,99527.16
2022-10-11T13:40:45.311Z,99530.63
2022-10-11T13:42:51.528Z,99532.41
2022-10-11T13:44:53.980Z,99531.56
2022-10-11T13:46:56.000Z,99530.69
2022-10-11T13:49:04.585Z,99536.00
2022-10-11T13:51:26.469Z,99540.41
2022-10-11T13:53:28.784Z,99544.84
2022-10-11T13:55:37.046Z,99541.41
2022-10-11T13:57:47.044Z,99534.44
2022-10-11T13:59:50.023Z,99546.66
2022-10-11T14:01:58.195Z,99533.63
2022-10-11T14:04:07.303Z,99545.91
2022-10-11T14:06:10.247Z,99542.44
2022-10-11T14:08:24.648Z,99539.88
2022-10-11T14:10:27.098Z,99539.91
2022-10-11T14:12:35.749Z,99526.03
2022-10-11T14:14:42.773Z,99531.31
2022-10-11T14:16:56.498Z,99537.44
2022-10-11T14:18:58.794Z,99532.25
2022-10-11T14:21:24.271Z,99533.16
2022-10-11T14:23:26.674Z,99534.94
2022-10-11T14:25:29.097Z,99531.50
2022-10-11T14:27:31.298Z,99528.94
2022-10-11T14:29:39.741Z,99534.22
2022-10-11T14:31:42.307Z,99531.66
2022-10-11T14:33:47.385Z,99536.03
2022-10-11T14:35:49.575Z,99536.09
2022-10-11T14:37:52.488Z,99530.91
2022-10-11T14:40:00.935Z,99540.53
2022-10-11T14:42:06.511Z,99540.53
2022-10-11T14:44:16.833Z,99546.66
2022-10-11T14:46:25.203Z,99548.44
2022-10-11T14:48:50.089Z,99549.34
2022-10-11T14:51:00.422Z,99545.03
2022-10-11T14:53:04.227Z,99550.25
2022-10-11T14:55:07.078Z,99547.66
2022-10-11T14:57:12.995Z,99521.56
2022-10-11T14:59:18.254Z,99550.28
2022-10-11T15:01:20.449Z,99545.94
2022-10-11T15:03:22.534Z,99549.44
2022-10-11T15:05:31.171Z,99554.66
2022-10-11T15:07:35.799Z,99554.63
2022-10-11T15:09:37.857Z,99543.25
2022-10-11T15:11:40.576Z,99538.00
2022-10-11T15:13:43.042Z,99551.91
2022-10-11T15:15:45.587Z,99565.78
2022-10-11T15:17:50.164Z,99551.84
2022-10-11T15:19:52.548Z,99549.22
2022-10-11T15:21:54.481Z,99568.28
2022-10-11T15:23:57.144Z,99564.75
2022-10-11T15:25:59.827Z,99568.19
2022-10-11T15:28:02.356Z,99555.09
2022-10-11T15:30:14.361Z,99562.88
2022-10-11T15:32:16.487Z,99568.06
2022-10-11T15:34:18.535Z,99568.03
2022-10-11T15:36:22.630Z,99579.31
2022-10-11T15:38:25.991Z,99573.19
2022-10-11T15:40:33.456Z,99578.38
2022-10-11T15:42:35.679Z,99564.41
2022-10-11T15:44:37.790Z,99555.63
2022-10-11T15:46:41.644Z,99561.69
2022-10-11T15:48:44.686Z,99571.22
2022-10-11T15:50:47.332Z,99571.19
2022-10-11T15:52:52.778Z,99556.31
2022-10-11T15:54:54.939Z,99557.97
2022-10-11T15:56:57.012Z,99558.81
2022-10-11T15:58:59.201Z,99559.59
2022-10-11T16:01:06.195Z,99552.59
2022-10-11T16:03:11.935Z,99572.53
2022-10-11T16:05:14.002Z,99548.13
2022-10-11T16:07:16.249Z,99561.97
2022-10-11T16:09:18.272Z,99562.84
2022-10-11T16:11:20.441Z,99562.78
2022-10-11T16:13:22.590Z,99564.44
2022-10-11T16:15:25.017Z,99569.66
2022-10-11T16:17:27.201Z,99527.78
2022-10-11T16:19:29.518Z,99566.94
2022-10-11T16:21:31.579Z,99571.25
2022-10-11T16:23:33.597Z,99565.09
2022-10-11T16:25:36.119Z,99570.28
2022-10-11T16:27:38.255Z,99554.56
2022-10-11T16:29:40.397Z,99561.53
2022-10-11T16:31:42.521Z,99564.09
2022-10-11T16:33:48.099Z,99563.16
2022-10-11T16:35:50.904Z,99574.47
2022-10-11T16:37:52.825Z,99560.50
2022-10-11T16:39:55.103Z,99556.91
2022-10-11T16:41:57.467Z,99565.53
2022-10-11T16:43:59.883Z,99548.13
2022-10-11T16:46:01.776Z,99561.13
2022-10-11T16:48:05.049Z,99545.38
2022-10-11T16:50:07.934Z,99557.59
2022-10-11T16:52:14.285Z,99547.13
2022-10-11T16:54:20.462Z,99561.00
2022-10-11T16:56:26.111Z,99559.28
2022-10-11T16:58:31.285Z,99547.03
2022-10-11T17:00:33.988Z,99559.19
2022-10-11T17:02:36.535Z,99559.13
2022-10-11T17:04:38.770Z,99548.66
2022-10-11T17:06:41.446Z,99540.84
2022-10-11T17:08:43.864Z,99544.34
2022-10-11T17:10:47.780Z,99541.72
2022-10-11T17:12:50.411Z,99548.66
2022-10-11T17:14:52.901Z,99541.69
2022-10-11T17:16:57.779Z,99543.47
2022-10-11T17:19:00.213Z,99537.44
2022-10-11T17:21:05.281Z,99534.94
2022-10-11T17:23:10.230Z,99519.41
2022-10-11T17:25:12.650Z,99536.16
2022-10-11T17:27:15.769Z,99534.56
2022-10-11T17:29:19.238Z,99535.59
2022-10-11T17:31:28.062Z,99526.97
2022-10-11T17:33:34.023Z,99530.31
2022-10-11T17:35:36.204Z,99530.28
2022-10-11T17:37:42.357Z,99531.84
2022-10-11T17:39:45.062Z,99526.47
2022-10-11T17:41:47.700Z,99531.63
2022-10-11T17:43:50.025Z,99531.50
2022-10-11T17:46:00.125Z,99514.09
2022-10-11T17:48:04.222Z,99520.16
2022-10-11T17:50:06.842Z,99519.34
2022-10-11T17:52:09.135Z,99521.97
2022-10-11T17:54:13.200Z,99524.50
2022-10-11T17:56:18.220Z,99521.88
2022-10-11T17:58:20.536Z,99508.75
2022-10-11T18:00:23.214Z,99514.91
2022-10-11T18:02:25.356Z,99524.47
2022-10-11T18:04:29.858Z,99530.50
2022-10-11T18:06:38.207Z,99524.34
2022-10-11T18:08:41.512Z,99508.59
2022-10-11T18:10:47.479Z,99515.41
2022-10-11T18:12:54.130Z,99510.97
2022-10-11T18:14:56.314Z,99529.22
2022-10-11T18:16:58.419Z,99521.28
2022-10-11T18:19:03.072Z,99525.63
2022-10-11T18:21:05.645Z,99515.16
2022-10-11T18:23:08.326Z,99516.03
2022-10-11T18:25:10.425Z,99520.31
2022-10-11T18:27:13.284Z,99524.56
2022-10-11T18:29:15.770Z,99505.38
2022-10-11T18:31:19.561Z,99516.69
2022-10-11T18:33:21.743Z,99499.97
2022-10-11T18:35:23.910Z,99519.16
2022-10-11T18:37:26.988Z,99502.59
2022-10-11T18:39:29.325Z,99510.34
2022-10-11T18:41:32.403Z,99516.41
2022-10-11T18:43:34.919Z,99485.75
2022-10-11T18:45:37.471Z,99497.94
2022-10-11T18:47:39.566Z,99508.41
2022-10-11T18:49:41.770Z,99505.03
2022-10-11T18:51:45.477Z,99499.00
2022-10-11T18:53:48.813Z,99507.69
2022-10-11T18:55:51.431Z,99501.53
2022-10-11T18:57:53.929Z,99498.91
2022-10-11T18:59:56.182Z,99496.19
2022-10-11T19:01:58.929Z,99486.66
2022-10-11T19:04:02.653Z,99498.75
2022-10-11T19:06:12.864Z,99480.50
2022-10-11T19:08:14.995Z,99477.94
2022-10-11T19:10:17.043Z,99489.34
2022-10-11T19:12:19.278Z,99480.66
2022-10-11T19:14:22.851Z,99482.38
2022-10-11T19:16:39.359Z,99470.06
2022-10-11T19:18:44.194Z,99472.63
2022-10-11T19:20:46.838Z,99479.47
2022-10-11T19:22:48.920Z,99478.63
2022-10-11T19:24:50.936Z,99469.81
2022-10-11T19:26:57.236Z,99466.31
2022-10-11T19:29:15.059Z,99470.66
2022-10-11T19:31:17.208Z,99460.28
2022-10-11T19:33:19.614Z,99463.66
2022-10-11T19:35:21.607Z,99481.88
2022-10-11T19:37:23.733Z,99473.03
2022-10-11T19:39:25.850Z,99484.34
2022-10-11T19:41:28.080Z,99480.88
2022-10-11T19:43:30.375Z,99473.84
2022-10-11T19:45:35.452Z,99487.72
2022-10-11T19:47:37.546Z,99489.38
2022-10-11T19:49:39.664Z,99483.25
2022-10-11T19:51:41.773Z,99489.31
2022-10-11T19:53:44.262Z,99493.59
2022-10-11T19:55:46.668Z,99488.34
2022-10-11T19:57:49.363Z,99484.75
2022-10-11T19:59:51.382Z,99492.47
2022-10-11T20:01:53.711Z,99485.56
2022-10-11T20:04:03.576Z,99482.94
2022-10-11T20:06:08.010Z,99488.84
2022-10-11T20:08:10.191Z,99460.00
2022-10-11T20:10:12.236Z,99483.53
2022-10-11T20:12:14.351Z,99465.25
2022-10-11T20:14:17.457Z,99465.16
2022-10-11T20:16:25.729Z,99451.25
2022-10-11T20:18:29.336Z,99474.63
2022-10-11T20:20:32.154Z,99470.22
2022-10-11T20:22:34.694Z,99458.91
2022-10-11T20:24:37.106Z,99468.44
2022-10-11T20:26:39.487Z,99469.13
2022-10-11T20:28:42.346Z,99476.00
2022-10-11T20:30:44.441Z,99474.16
2022-10-11T20:32:46.639Z,99477.50
2022-10-11T20:34:48.750Z,99469.69
2022-10-11T20:36:50.871Z,99462.63
2022-10-11T20:38:53.673Z,99473.91
2022-10-11T20:40:56.307Z,99470.47
2022-10-11T20:42:58.685Z,99459.09
2022-10-11T20:45:00.702Z,99474.78
2022-10-11T20:47:04.209Z,99464.25
2022-10-11T20:49:09.417Z,99456.47
2022-10-11T20:51:11.598Z,99473.91
2022-10-11T20:53:16.333Z,99473.00
2022-10-11T20:55:18.622Z,99464.28
2022-10-11T20:57:20.806Z,99472.97
2022-10-11T20:59:23.476Z,99463.41
2022-10-11T21:01:31.913Z,99471.25
2022-10-11T21:03:34.012Z,99471.19
2022-10-11T21:05:36.165Z,99454.72
2022-10-11T21:07:38.181Z,99459.00
2022-10-11T21:09:40.303Z,99454.72
2022-10-11T21:11:42.411Z,99456.41
2022-10-11T21:13:44.636Z,99444.25
2022-10-11T21:15:47.543Z,99418.03
2022-10-11T21:17:49.842Z,99445.03
2022-10-11T21:19:51.814Z,99453.75
2022-10-11T21:21:54.441Z,99457.94
2022-10-11T21:23:58.419Z,99455.41
2022-10-11T21:26:02.897Z,99456.19
2022-10-11T21:28:05.987Z,99465.72
2022-10-11T21:30:08.717Z,99457.97
2022-10-11T21:32:14.288Z,99447.44
2022-10-11T21:34:16.767Z,99442.28
2022-10-11T21:36:21.885Z,99450.91
2022-10-11T21:38:26.004Z,99455.19
2022-10-11T21:40:27.998Z,99452.63
2022-10-11T21:42:30.192Z,99449.91
2022-10-11T21:44:35.996Z,99458.53
2022-10-11T21:47:04.751Z,99448.91
2022-10-11T21:49:00.108Z,99448.81
2022-10-11T21:51:02.164Z,99447.03
2022-10-11T21:53:04.364Z,99452.16
2022-10-11T21:55:06.547Z,99440.91
2022-10-11T21:57:08.622Z,99446.94
2022-10-11T21:59:12.674Z,99434.75
2022-10-11T22:01:15.257Z,99433.78
2022-10-11T22:03:17.737Z,99442.59
2022-10-11T22:05:19.816Z,99444.28
2022-10-11T22:07:22.417Z,99452.88
2022-10-11T22:09:24.723Z,99443.34
2022-10-11T22:11:27.115Z,99448.56
2022-10-11T22:13:31.167Z,99450.22
2022-10-11T22:15:34.800Z,99447.63
2022-10-11T22:17:36.853Z,99448.47
2022-10-11T22:19:39.536Z,99436.31
2022-10-11T22:21:45.020Z,99435.50
2022-10-11T22:23:49.473Z,99437.16
2022-10-11T22:25:51.575Z,99448.41
2022-10-11T22:27:53.966Z,99443.16
2022-10-11T22:29:56.092Z,99446.59
2022-10-11T22:31:58.260Z,99436.91
2022-10-11T22:34:00.773Z,99446.41
2022-10-11T22:36:05.812Z,99444.63
2022-10-11T22:38:07.910Z,99436.72
2022-10-11T22:40:10.305Z,99438.47
2022-10-11T22:42:12.958Z,99442.88
2022-10-11T22:44:15.139Z,99441.06
2022-10-11T22:46:17.181Z,99437.66
2022-10-11T22:48:19.359Z,99430.59
2022-10-11T22:50:21.583Z,99430.59
2022-10-11T22:52:23.487Z,99440.97
2022-10-11T22:54:25.654Z,99444.34
2022-10-11T22:56:27.835Z,99440.91
2022-10-11T22:58:31.129Z,99434.72
2022-10-11T23:00:34.278Z,99428.56
2022-10-11T23:02:36.291Z,99431.25
2022-10-11T23:04:38.388Z,99438.19
2022-10-11T23:06:41.041Z,99427.75
2022-10-11T23:08:44.516Z,99417.38
2022-10-11T23:10:46.571Z,99423.63
2022-10-11T23:12:48.696Z,99429.75
2022-10-11T23:14:50.717Z,99430.66
2022-10-11T23:16:53.403Z,99431.47
2022-10-11T23:18:55.545Z,99424.44
2022-10-11T23:21:00.612Z,99436.59
2022-10-11T23:23:02.626Z,99421.84
2022-10-11T23:25:05.513Z,99420.16
2022-10-11T23:27:08.011Z,99418.47
2022-10-11T23:29:10.826Z,99418.53
2022-10-11T23:31:16.662Z,99403.06
2022-10-11T23:33:18.725Z,99424.75
2022-10-11T23:35:20.798Z,99398.63
2022-10-11T23:37:22.960Z,99423.88
2022-10-11T23:39:24.973Z,99422.09
2022-10-11T23:41:29.262Z,99422.97
2022-10-11T23:43:31.388Z,99401.19
2022-10-11T23:45:33.568Z,99417.63
2022-10-11T23:47:35.825Z,99424.59
2022-10-11T23:49:37.901Z,99418.53
2022-10-11T23:51:40.257Z,99427.97
2022-10-11T23:53:42.535Z,99415.75
2022-10-11T23:55:44.801Z,99402.72
2022-10-11T23:57:46.905Z,99420.97
2022-10-11T23:59:48.933Z,99408.00
